Аэропорт: Астана. Астана

ICAO: UACC

METAR:
2024-02-27 01:00:00
UACC 270100Z 26004MPS 7000 OVC006 M10/M11 Q1034 NOSIG RMK QBB200 QFE744/0992
TAF:
2024-02-26 23:09:00
TAF AMD UACC 262309Z 2700/2724 26006MPS 3000 BR BKN004 BKN011 TXM04/2710Z TNM12/2702Z 
  TEMPO 2700/2706 22003MPS 0200 -SN FZFG VV001 
  FM270600 27007MPS 9999 BKN011 BKN030 
  TEMPO 2706/2712 30004MPS 2000 SN DRSN BKN003 
  BECMG 2712/2714 27004MPS 
  TEMPO 2712/2724 30003MPS 2000 -SN BR BKN005